Time;durP1;ratioP1;P1;durP2;ratioP2;P2;SDS_P1;SDS_P2;PMS_P1;PMS_P2;Temp;Humidity;BMP_temperature;BMP_pressure;BME280_temperature;BME280_humidity;BME280_pressure;Samples;Min_cycle;Max_cycle;Signal;HPM_P1;HPM_P2
2022/03/18 00:02:09;;;;;;;40.43;15.83;;;3.30;58.60;;;;;;9874997;30;20040;-83
2022/03/18 00:07:10;;;;;;;35.30;14.77;;;3.10;59.20;;;;;;9875840;30;20032;-84
2022/03/18 00:12:12;;;;;;;49.57;17.87;;;3.00;59.40;;;;;;9874385;30;20533;-83
2022/03/18 00:17:13;;;;;;;35.37;14.50;;;2.90;60.20;;;;;;9857653;30;20641;-83
2022/03/18 00:22:13;;;;;;;37.00;15.30;;;2.80;60.20;;;;;;9869400;30;20209;-84
2022/03/18 00:27:14;;;;;;;33.77;13.93;;;2.80;60.10;;;;;;9869101;30;20093;-83
2022/03/18 00:32:15;;;;;;;27.33;11.70;;;2.80;59.60;;;;;;9868925;30;20040;-82
2022/03/18 00:37:15;;;;;;;29.30;12.33;;;2.80;59.30;;;;;;9868201;30;20097;-83
2022/03/18 00:42:16;;;;;;;31.27;12.80;;;2.80;60.20;;;;;;9868747;30;20047;-83
2022/03/18 00:52:47;;;;;;;20.60;10.10;;;2.60;59.40;;;;;;9834629;30;20048;-83
2022/03/18 00:57:47;;;;;;;24.10;11.60;;;2.50;59.80;;;;;;9867092;30;20060;-84
2022/03/18 01:02:48;;;;;;;25.53;10.73;;;2.40;60.00;;;;;;9852882;30;20497;-82
2022/03/18 01:07:49;;;;;;;23.23;11.23;;;2.30;60.30;;;;;;9867771;30;20108;-83
2022/03/18 01:12:49;;;;;;;25.70;10.77;;;2.30;61.00;;;;;;9866937;30;20612;-82
2022/03/18 01:17:51;;;;;;;23.27;10.73;;;2.20;60.80;;;;;;9867564;30;20032;-82
2022/03/18 01:22:52;;;;;;;22.93;11.07;;;2.20;61.00;;;;;;9850829;30;20044;-83
2022/03/18 01:27:53;;;;;;;23.40;11.70;;;2.10;61.00;;;;;;9865459;30;20039;-83
2022/03/18 01:32:53;;;;;;;28.03;13.33;;;2.10;61.40;;;;;;9847393;30;20032;-82
2022/03/18 01:37:55;;;;;;;23.10;11.97;;;2.10;61.60;;;;;;9849643;30;20078;-83
2022/03/18 01:42:56;;;;;;;32.20;12.90;;;2.00;62.40;;;;;;9866710;30;20482;-83
2022/03/18 01:47:56;;;;;;;27.87;13.97;;;1.90;62.00;;;;;;9838818;30;20032;-82
2022/03/18 01:52:58;;;;;;;35.30;15.30;;;1.90;62.20;;;;;;9837139;30;20044;-82
2022/03/18 01:57:59;;;;;;;35.30;13.37;;;1.90;62.40;;;;;;9841707;30;20090;-82
2022/03/18 02:02:59;;;;;;;31.43;15.17;;;1.90;62.70;;;;;;9865342;30;20049;-82
2022/03/18 02:08:01;;;;;;;31.70;13.50;;;1.80;63.10;;;;;;9860337;30;20064;-83
2022/03/18 02:13:02;;;;;;;29.60;13.07;;;1.70;63.20;;;;;;9864741;30;20039;-82
2022/03/18 02:18:05;;;;;;;29.50;13.17;;;1.70;63.30;;;;;;9865216;30;20536;-83
2022/03/18 02:23:06;;;;;;;27.30;13.53;;;1.70;63.70;;;;;;9865032;30;20043;-82
2022/03/18 02:28:08;;;;;;;32.23;13.47;;;1.60;63.90;;;;;;9865335;30;20098;-82
2022/03/18 02:33:10;;;;;;;34.53;13.47;;;1.60;64.10;;;;;;9864358;30;20055;-83
2022/03/18 02:38:10;;;;;;;26.03;13.80;;;1.50;64.20;;;;;;9864714;30;20048;-82
2022/03/18 02:43:11;;;;;;;30.30;13.53;;;1.50;64.50;;;;;;9864184;30;20040;-83
2022/03/18 02:48:12;;;;;;;27.37;13.47;;;1.40;64.50;;;;;;9864187;30;20471;-83
2022/03/18 02:53:12;;;;;;;31.87;13.83;;;1.40;64.80;;;;;;9864386;30;20054;-82
2022/03/18 02:58:13;;;;;;;26.60;13.60;;;1.30;65.20;;;;;;9847220;30;20062;-83
2022/03/18 03:03:13;;;;;;;27.60;14.60;;;1.30;65.10;;;;;;9847348;30;20581;-82
2022/03/18 03:08:14;;;;;;;29.90;13.87;;;1.20;65.10;;;;;;9863797;30;20048;-82
2022/03/18 03:13:15;;;;;;;28.50;13.33;;;1.10;65.20;;;;;;9863941;30;20031;-82
2022/03/18 03:18:15;;;;;;;31.97;12.17;;;1.10;65.30;;;;;;9863444;30;20106;-83
2022/03/18 03:23:16;;;;;;;22.80;12.00;;;1.10;65.20;;;;;;9863662;30;20542;-82
2022/03/18 03:28:17;;;;;;;25.83;11.80;;;1.10;65.40;;;;;;9863884;30;20035;-82
2022/03/18 03:33:18;;;;;;;25.57;11.30;;;1.00;65.30;;;;;;9862894;30;20028;-82
2022/03/18 03:38:21;;;;;;;30.40;12.70;;;1.00;65.30;;;;;;9862722;30;20481;-82
2022/03/18 03:43:22;;;;;;;30.80;11.77;;;1.00;65.40;;;;;;9863607;30;20032;-82
2022/03/18 03:48:23;;;;;;;26.37;12.77;;;1.00;65.60;;;;;;9862965;30;20089;-82
2022/03/18 03:53:24;;;;;;;27.87;12.90;;;0.90;65.90;;;;;;9866794;30;20535;-84
2022/03/18 03:58:24;;;;;;;27.73;12.53;;;0.80;66.30;;;;;;9852777;30;20055;-84
2022/03/18 04:03:25;;;;;;;28.27;13.40;;;0.80;66.60;;;;;;9870204;30;20126;-85
2022/03/18 04:08:26;;;;;;;27.10;13.43;;;0.70;68.20;;;;;;9869976;30;20043;-82
2022/03/18 04:13:26;;;;;;;32.30;13.00;;;0.70;68.00;;;;;;9868159;30;20036;-83
2022/03/18 04:18:27;;;;;;;26.40;12.20;;;0.60;68.10;;;;;;9853097;30;20138;-83
2022/03/18 04:23:28;;;;;;;25.13;12.73;;;0.60;69.20;;;;;;9869322;30;20035;-83
2022/03/18 04:28:28;;;;;;;35.10;15.77;;;0.60;69.40;;;;;;9868414;30;20052;-82
2022/03/18 04:33:29;;;;;;;31.27;12.20;;;0.50;69.20;;;;;;9868499;30;20374;-83
2022/03/18 04:38:30;;;;;;;21.97;11.60;;;0.40;69.10;;;;;;9868908;30;20043;-82
2022/03/18 04:43:30;;;;;;;27.30;11.77;;;0.40;68.70;;;;;;9868419;30;20126;-82
2022/03/18 04:48:31;;;;;;;28.27;12.40;;;0.40;68.80;;;;;;9867841;30;20031;-82
2022/03/18 04:53:32;;;;;;;22.70;11.97;;;0.40;69.10;;;;;;9867657;30;20043;-83
2022/03/18 04:58:33;;;;;;;24.77;12.33;;;0.40;69.10;;;;;;9860735;30;20059;-83
2022/03/18 05:03:34;;;;;;;26.13;12.33;;;0.30;69.30;;;;;;9863476;30;20032;-83
2022/03/18 05:08:36;;;;;;;21.87;12.97;;;0.30;69.40;;;;;;9868078;30;20027;-83
2022/03/18 05:13:36;;;;;;;29.77;13.13;;;0.30;69.50;;;;;;9867494;30;20089;-83
2022/03/18 05:18:37;;;;;;;26.13;11.53;;;0.30;70.10;;;;;;9866490;30;20055;-85
2022/03/18 05:23:37;;;;;;;27.27;12.97;;;0.40;69.90;;;;;;9845813;30;20051;-85
2022/03/18 05:28:38;;;;;;;26.23;12.17;;;0.40;69.90;;;;;;9860639;30;20032;-85
2022/03/18 05:33:39;;;;;;;29.57;13.13;;;0.40;70.00;;;;;;9867509;30;20043;-86
2022/03/18 05:38:40;;;;;;;28.33;14.00;;;0.40;70.00;;;;;;9866902;30;20035;-87
2022/03/18 05:43:43;;;;;;;27.00;13.17;;;0.50;70.00;;;;;;9851245;30;20042;-85
2022/03/18 05:48:44;;;;;;;30.43;13.73;;;0.50;70.10;;;;;;9823273;30;20036;-85
2022/03/18 05:53:45;;;;;;;25.03;13.40;;;0.60;70.40;;;;;;9830213;30;20032;-86
2022/03/18 05:58:53;;;;;;;28.67;12.57;;;0.60;69.80;;;;;;9830285;30;20064;-87
2022/03/18 06:03:53;;;;;;;30.43;13.40;;;0.60;70.00;;;;;;9829558;30;20044;-85
2022/03/18 06:14:14;;;;;;;26.87;12.53;;;0.90;69.80;;;;;;9829003;30;20123;-85
2022/03/18 06:19:19;;;;;;;28.33;14.40;;;1.00;70.10;;;;;;9829653;30;20040;-85
2022/03/18 06:24:22;;;;;;;29.02;14.65;;;1.20;69.20;;;;;;9829242;30;20089;-86
2022/03/18 06:29:23;;;;;;;25.80;13.53;;;1.30;69.10;;;;;;9828735;30;20032;-85
2022/03/18 06:34:24;;;;;;;26.53;13.00;;;1.50;68.60;;;;;;9829148;30;20361;-86
2022/03/18 06:39:25;;;;;;;35.00;15.83;;;1.60;68.90;;;;;;9828177;30;20493;-85
2022/03/18 06:44:26;;;;;;;29.33;14.50;;;1.70;69.10;;;;;;9828444;30;20036;-86
2022/03/18 06:49:26;;;;;;;29.67;15.80;;;1.90;68.80;;;;;;9828229;30;20501;-85
2022/03/18 06:54:27;;;;;;;66.60;29.37;;;2.10;67.70;;;;;;9812083;30;20046;-86
2022/03/18 06:59:28;;;;;;;36.60;16.10;;;2.20;67.70;;;;;;9828374;30;20080;-85
2022/03/18 07:04:28;;;;;;;31.90;16.27;;;2.40;67.30;;;;;;9828304;30;20043;-86
2022/03/18 07:09:29;;;;;;;37.97;18.57;;;2.70;68.50;;;;;;9812159;30;20093;-85
2022/03/18 07:14:30;;;;;;;36.17;14.90;;;2.90;67.90;;;;;;9827519;30;20036;-84
2022/03/18 07:19:32;;;;;;;40.07;17.77;;;3.10;66.00;;;;;;9828257;30;20090;-85
2022/03/18 07:24:33;;;;;;;33.50;16.07;;;3.10;66.20;;;;;;9828085;30;20032;-85
2022/03/18 07:29:33;;;;;;;33.93;15.73;;;3.00;65.10;;;;;;9833190;30;20024;-85
2022/03/18 07:34:34;;;;;;;33.63;15.37;;;2.90;64.90;;;;;;9836495;30;20028;-85
2022/03/18 07:39:35;;;;;;;41.67;17.80;;;2.90;66.10;;;;;;9834206;30;20035;-85
2022/03/18 07:44:36;;;;;;;33.77;16.80;;;3.20;65.40;;;;;;9834839;30;20032;-86
2022/03/18 07:49:36;;;;;;;32.20;14.80;;;3.40;65.90;;;;;;9834418;30;20619;-85
2022/03/18 07:54:39;;;;;;;35.27;16.33;;;3.60;65.90;;;;;;9834288;30;20135;-85
2022/03/18 07:59:39;;;;;;;31.10;14.90;;;3.70;64.80;;;;;;9833677;30;20074;-87
2022/03/18 08:04:40;;;;;;;44.57;19.53;;;3.70;63.30;;;;;;9835715;30;20116;-85
2022/03/18 08:09:40;;;;;;;38.90;20.93;;;3.90;64.10;;;;;;9858472;30;20044;-84
2022/03/18 08:14:42;;;;;;;29.33;14.77;;;4.10;63.30;;;;;;9869469;30;20036;-84
2022/03/18 08:19:43;;;;;;;33.30;16.10;;;4.00;61.20;;;;;;9869177;30;20039;-84
2022/03/18 08:24:43;;;;;;;51.83;26.17;;;3.90;62.70;;;;;;9864023;30;20461;-84
2022/03/18 08:29:45;;;;;;;33.30;15.73;;;4.40;63.40;;;;;;9869242;30;20035;-84
2022/03/18 08:35:38;;;;;;;60.87;27.00;;;4.90;62.90;;;;;;9868893;30;20123;-86
2022/03/18 08:40:39;;;;;;;25.57;14.27;;;5.40;61.80;;;;;;9867721;30;20134;-84
2022/03/18 08:45:40;;;;;;;48.10;21.00;;;5.50;59.10;;;;;;9869408;30;20039;-84
2022/03/18 08:50:40;;;;;;;55.77;29.90;;;5.40;59.60;;;;;;9867806;30;20116;-84
2022/03/18 08:55:41;;;;;;;31.07;16.43;;;5.70;60.60;;;;;;9868686;30;20493;-84
2022/03/18 09:00:42;;;;;;;28.33;16.30;;;6.00;59.80;;;;;;9868324;30;20046;-85
2022/03/18 09:05:43;;;;;;;44.50;22.13;;;6.50;60.40;;;;;;9852011;30;20028;-84
2022/03/18 09:10:43;;;;;;;30.20;15.57;;;7.00;58.00;;;;;;9867817;30;20371;-83
2022/03/18 09:15:44;;;;;;;27.40;13.60;;;7.60;58.60;;;;;;9864326;30;20028;-84
2022/03/18 09:21:34;;;;;;;38.20;20.30;;;7.90;55.50;;;;;;9859132;30;20156;-84
2022/03/18 09:26:35;;;;;;;31.23;14.60;;;8.00;57.30;;;;;;9846631;30;20027;-84
2022/03/18 09:31:36;;;;;;;37.00;15.20;;;7.90;54.20;;;;;;9835778;30;20397;-84
2022/03/18 09:36:37;;;;;;;26.80;13.73;;;7.70;54.60;;;;;;9830242;30;20036;-84
2022/03/18 09:41:37;;;;;;;30.13;15.00;;;7.90;53.70;;;;;;9834367;30;20059;-83
2022/03/18 09:46:41;;;;;;;36.03;18.60;;;8.10;56.40;;;;;;9847876;30;20063;-84
2022/03/18 09:51:42;;;;;;;24.90;13.83;;;8.60;55.50;;;;;;9845482;30;20046;-84
2022/03/18 09:56:45;;;;;;;34.03;16.83;;;9.00;52.20;;;;;;9866533;30;20052;-84
2022/03/18 10:01:46;;;;;;;32.53;14.53;;;9.10;53.20;;;;;;9855736;30;20040;-84
2022/03/18 10:06:48;;;;;;;22.50;12.10;;;9.50;53.60;;;;;;9832370;30;20485;-84
2022/03/18 10:11:50;;;;;;;32.20;20.80;;;9.30;52.00;;;;;;9864370;30;20036;-84
2022/03/18 10:16:51;;;;;;;30.87;16.17;;;9.60;53.10;;;;;;9837158;30;20038;-84
2022/03/18 10:22:03;;;;;;;20.63;11.13;;;10.00;52.90;;;;;;9861203;30;20039;-84
2022/03/18 10:27:15;;;;;;;19.97;11.43;;;10.10;48.50;;;;;;9863261;30;20028;-84
2022/03/18 10:32:18;;;;;;;23.13;13.90;;;9.70;49.20;;;;;;9857658;30;20043;-84
2022/03/18 10:37:21;;;;;;;25.03;12.97;;;9.70;50.70;;;;;;9860913;30;20039;-83
2022/03/18 10:42:21;;;;;;;18.80;9.73;;;9.90;50.60;;;;;;9862379;30;20031;-84
2022/03/18 10:47:35;;;;;;;18.07;10.53;;;10.20;50.10;;;;;;9862075;30;20035;-84
2022/03/18 10:52:36;;;;;;;22.83;11.67;;;10.50;50.50;;;;;;9848913;30;20063;-84
2022/03/18 10:57:37;;;;;;;19.60;9.90;;;10.70;49.60;;;;;;9846033;30;20143;-84
2022/03/18 11:02:42;;;;;;;21.23;13.03;;;10.70;48.60;;;;;;9852915;30;20036;-86
2022/03/18 11:07:43;;;;;;;23.27;14.77;;;10.70;47.40;;;;;;9855465;30;20043;-84
2022/03/18 11:12:47;;;;;;;14.00;9.23;;;11.10;48.50;;;;;;9859297;30;20558;-85
2022/03/18 11:17:48;;;;;;;16.40;9.00;;;11.40;47.50;;;;;;9836009;30;20073;-84
2022/03/18 11:22:49;;;;;;;26.30;16.85;;;11.10;45.60;;;;;;9849917;30;20111;-85
2022/03/18 11:27:51;;;;;;;17.23;9.47;;;11.30;47.10;;;;;;9854625;30;20040;-85
2022/03/18 11:33:10;;;;;;;14.60;8.90;;;11.40;47.60;;;;;;9861716;30;20032;-84
2022/03/18 11:38:14;;;;;;;21.05;11.60;;;11.50;45.40;;;;;;9861696;30;20044;-84
2022/03/18 11:43:43;;;;;;;25.15;13.60;;;11.80;46.20;;;;;;9859124;30;20122;-84
2022/03/18 11:48:57;;;;;;;14.80;8.48;;;11.30;45.20;;;;;;9843777;30;20035;-85
2022/03/18 11:54:01;;;;;;;17.80;10.18;;;11.30;46.70;;;;;;9828451;30;20909;-85
2022/03/18 11:59:24;;;;;;;23.15;12.13;;;11.60;46.90;;;;;;9858291;30;20505;-87
2022/03/18 12:04:36;;;;;;;24.33;12.68;;;12.00;46.40;;;;;;9863790;30;20036;-86
2022/03/18 12:10:06;;;;;;;20.10;11.15;;;12.20;46.30;;;;;;9862440;30;20119;-86
2022/03/18 12:15:22;;;;;;;27.02;17.35;;;12.00;44.30;;;;;;9865517;30;20493;-86
2022/03/18 12:20:28;;;;;;;13.37;7.83;;;12.20;44.30;;;;;;9833785;30;20036;-84
2022/03/18 12:25:29;;;;;;;21.30;11.77;;;12.20;41.60;;;;;;9846087;30;20743;-83
2022/03/18 12:30:30;;;;;;;14.48;7.35;;;12.10;44.10;;;;;;9857916;30;20041;-83
2022/03/18 12:35:32;;;;;;;13.23;7.55;;;12.00;43.00;;;;;;9848750;30;20267;-84
2022/03/18 12:40:35;;;;;;;16.63;9.70;;;11.80;42.90;;;;;;9841042;30;20047;-84
2022/03/18 12:45:44;;;;;;;16.65;8.75;;;12.00;44.00;;;;;;9866376;30;20092;-85
2022/03/18 12:50:48;;;;;;;15.00;8.38;;;12.40;44.20;;;;;;9832901;30;20032;-85
2022/03/18 12:55:51;;;;;;;16.65;7.53;;;12.40;42.30;;;;;;9847583;30;20485;-85
2022/03/18 13:00:56;;;;;;;16.85;9.57;;;12.40;42.30;;;;;;9850149;30;20055;-85
2022/03/18 13:06:18;;;;;;;14.77;8.65;;;12.50;43.90;;;;;;9841962;30;20036;-84
2022/03/18 13:11:21;;;;;;;19.38;9.30;;;12.60;41.50;;;;;;9816925;30;20129;-84
2022/03/18 13:16:23;;;;;;;26.52;17.50;;;12.40;42.40;;;;;;9837061;30;20057;-84
2022/03/18 13:21:24;;;;;;;18.05;9.23;;;12.50;42.50;;;;;;9831349;30;20063;-84
2022/03/18 13:26:25;;;;;;;21.88;10.07;;;12.40;42.00;;;;;;9830683;30;20385;-85
2022/03/18 13:36:45;;;;;;;25.08;12.05;;;12.20;42.40;;;;;;9830372;30;20048;-84
2022/03/18 13:41:51;;;;;;;23.63;12.32;;;12.20;42.90;;;;;;9829503;30;20051;-84
2022/03/18 13:47:06;;;;;;;14.13;7.53;;;12.30;43.00;;;;;;9840155;30;20076;-84
2022/03/18 13:52:09;;;;;;;24.85;12.13;;;12.20;41.70;;;;;;9834487;30;20032;-86
2022/03/18 13:57:11;;;;;;;29.80;14.02;;;12.10;41.20;;;;;;9815039;30;20074;-85
2022/03/18 14:02:11;;;;;;;35.10;19.65;;;11.70;42.50;;;;;;9862443;30;20039;-85
2022/03/18 14:07:14;;;;;;;25.42;11.85;;;11.70;43.30;;;;;;9864259;30;20590;-84
2022/03/18 14:12:15;;;;;;;21.33;10.70;;;11.60;43.00;;;;;;9861706;30;20032;-86
2022/03/18 14:17:16;;;;;;;12.73;8.23;;;11.70;42.40;;;;;;9864072;30;20036;-85
2022/03/18 14:22:33;;;;;;;19.87;12.53;;;11.40;41.70;;;;;;9861569;30;20039;-86
2022/03/18 14:27:38;;;;;;;21.23;16.00;;;11.00;40.60;;;;;;9862877;30;21301;-84
2022/03/18 14:32:43;;;;;;;13.17;7.00;;;10.70;41.80;;;;;;9863303;30;20040;-85
2022/03/18 14:37:45;;;;;;;17.03;12.50;;;10.50;40.80;;;;;;9863250;30;20177;-84
2022/03/18 14:42:45;;;;;;;20.77;12.50;;;10.30;41.40;;;;;;9856810;30;20036;-84
2022/03/18 14:47:47;;;;;;;14.80;7.67;;;10.30;43.20;;;;;;9859190;30;20063;-85
2022/03/18 14:52:48;;;;;;;15.83;10.00;;;10.30;41.40;;;;;;9863832;30;20808;-84
2022/03/18 14:57:49;;;;;;;13.30;7.43;;;10.30;42.60;;;;;;9815270;30;20063;-83
2022/03/18 15:02:50;;;;;;;15.33;8.67;;;10.20;41.70;;;;;;9816907;30;20032;-84
2022/03/18 15:08:00;;;;;;;31.37;14.20;;;10.10;43.10;;;;;;9800474;30;20375;-84
2022/03/18 15:13:00;;;;;;;19.60;11.73;;;10.00;43.40;;;;;;9789909;30;20037;-84
2022/03/18 15:18:01;;;;;;;253.00;145.73;;;10.00;43.20;;;;;;9806310;30;20048;-83
2022/03/18 15:23:04;;;;;;;71.50;39.80;;;9.90;42.50;;;;;;9827372;30;20474;-84
2022/03/18 15:28:07;;;;;;;56.73;32.90;;;9.90;44.00;;;;;;9826878;30;20035;-82
2022/03/18 15:33:08;;;;;;;24.10;18.27;;;9.90;44.60;;;;;;9826298;30;20707;-83
2022/03/18 15:38:10;;;;;;;15.03;9.40;;;9.70;44.10;;;;;;9826813;30;20044;-83
2022/03/18 16:04:56;;;;;;;17.63;9.70;;;8.90;46.00;;;;;;11382751;24;20599;-85
2022/03/18 16:10:19;;;;;;;20.17;10.47;;;8.80;46.90;;;;;;9816733;30;20032;-85
2022/03/18 16:15:34;;;;;;;19.90;9.90;;;8.70;47.00;;;;;;9815830;30;20040;-85
2022/03/18 16:52:32;;;;;;;23.17;12.77;;;7.00;48.80;;;;;;9827204;30;20170;-84
2022/03/18 16:57:34;;;;;;;21.33;11.17;;;6.70;49.20;;;;;;9817814;30;20075;-85
2022/03/18 17:02:35;;;;;;;21.00;11.53;;;6.30;51.10;;;;;;9850120;30;20492;-85
2022/03/18 17:07:35;;;;;;;25.63;12.97;;;5.70;52.10;;;;;;9867269;30;20127;-85
2022/03/18 17:12:36;;;;;;;37.83;18.23;;;5.20;52.80;;;;;;9867408;30;20032;-84
2022/03/18 17:17:37;;;;;;;52.37;24.00;;;4.70;53.70;;;;;;9867890;30;20050;-84
2022/03/18 17:22:38;;;;;;;73.60;35.40;;;4.40;54.90;;;;;;9867538;30;20086;-84
2022/03/18 17:27:41;;;;;;;83.97;37.97;;;4.00;55.20;;;;;;9865106;30;20032;-84
2022/03/18 17:32:42;;;;;;;49.17;21.63;;;3.80;55.60;;;;;;9851018;30;20039;-84
2022/03/18 17:37:42;;;;;;;33.10;16.30;;;3.60;56.70;;;;;;9850987;30;20035;-85
2022/03/18 17:42:43;;;;;;;36.20;16.97;;;3.40;57.00;;;;;;9864723;30;20066;-85
2022/03/18 17:47:44;;;;;;;44.60;18.57;;;3.20;57.70;;;;;;9829400;30;20062;-86
2022/03/18 17:52:44;;;;;;;47.13;20.90;;;3.10;57.90;;;;;;9827382;30;20044;-84
2022/03/18 17:57:45;;;;;;;51.67;23.03;;;3.00;58.40;;;;;;9828277;30;20036;-86
2022/03/18 18:02:45;;;;;;;51.57;22.40;;;3.00;58.60;;;;;;9811960;30;20039;-84
2022/03/18 18:07:46;;;;;;;56.50;24.57;;;3.00;58.40;;;;;;9822319;30;20032;-84
2022/03/18 18:12:49;;;;;;;63.90;25.67;;;2.90;59.20;;;;;;9825501;30;20032;-84
2022/03/18 18:17:50;;;;;;;72.67;33.33;;;2.80;58.90;;;;;;9817873;30;20086;-84
2022/03/18 18:22:51;;;;;;;100.97;45.13;;;2.70;59.00;;;;;;9795560;30;20045;-84
2022/03/18 18:27:52;;;;;;;115.10;49.90;;;2.60;59.40;;;;;;9814603;30;20138;-84
2022/03/18 18:32:54;;;;;;;97.60;42.97;;;2.50;60.00;;;;;;9828054;30;20079;-85
2022/03/18 18:37:55;;;;;;;90.90;40.27;;;2.40;60.60;;;;;;9826745;30;20472;-87
2022/03/18 18:43:06;;;;;;;99.03;41.70;;;2.30;60.80;;;;;;9828696;30;20489;-83
2022/03/18 18:48:16;;;;;;;102.87;45.57;;;2.00;62.20;;;;;;9849522;30;20044;-84
2022/03/18 18:53:16;;;;;;;89.87;40.27;;;1.90;63.10;;;;;;9824555;30;20046;-83
2022/03/18 18:58:20;;;;;;;80.53;33.93;;;1.80;63.20;;;;;;9865150;30;20486;-84
2022/03/18 19:03:21;;;;;;;95.33;40.60;;;2.00;62.50;;;;;;9859517;30;20093;-84
2022/03/18 19:08:23;;;;;;;89.53;37.23;;;2.30;61.60;;;;;;9837195;30;20039;-83
2022/03/18 19:13:24;;;;;;;86.20;36.17;;;2.50;62.20;;;;;;9839659;30;20054;-83
2022/03/18 19:18:26;;;;;;;85.73;36.80;;;2.40;62.00;;;;;;9862318;30;20036;-83
2022/03/18 19:23:29;;;;;;;86.67;37.27;;;2.20;62.30;;;;;;9860659;30;20036;-83
2022/03/18 19:28:30;;;;;;;88.03;40.60;;;2.00;63.40;;;;;;9862117;30;20515;-83
2022/03/18 19:33:30;;;;;;;100.77;42.37;;;1.80;64.00;;;;;;9867832;30;20177;-84
2022/03/18 19:38:31;;;;;;;93.00;40.30;;;1.80;64.00;;;;;;9841976;30;20047;-84
2022/03/18 19:43:32;;;;;;;89.77;40.57;;;1.80;64.30;;;;;;9870262;30;20123;-83
2022/03/18 19:48:34;;;;;;;83.47;36.63;;;1.80;64.10;;;;;;9870240;30;20505;-84
2022/03/18 19:53:35;;;;;;;88.23;39.07;;;1.80;64.20;;;;;;9866793;30;20043;-83
2022/03/18 20:03:55;;;;;;;81.20;35.93;;;1.70;64.50;;;;;;9862105;30;20036;-83
2022/03/18 20:08:58;;;;;;;81.60;34.13;;;1.70;64.90;;;;;;9849301;30;20036;-84
2022/03/18 20:13:59;;;;;;;79.53;35.60;;;1.50;65.10;;;;;;9858346;30;20050;-84
2022/03/18 20:19:00;;;;;;;80.20;33.93;;;1.50;65.30;;;;;;9868886;30;20058;-84
2022/03/18 20:24:01;;;;;;;81.77;35.27;;;1.50;65.70;;;;;;9868388;30;20059;-83
2022/03/18 20:29:03;;;;;;;85.80;35.43;;;1.40;65.90;;;;;;9852423;30;20545;-85
2022/03/18 20:34:04;;;;;;;78.80;36.87;;;1.20;66.30;;;;;;9867872;30;20023;-82
2022/03/18 20:39:05;;;;;;;71.80;33.70;;;1.20;66.40;;;;;;9868828;30;20047;-82
2022/03/18 20:44:05;;;;;;;88.03;36.83;;;1.20;66.40;;;;;;9860417;30;20052;-83
2022/03/18 20:49:07;;;;;;;89.30;39.17;;;1.20;66.40;;;;;;9830072;30;20044;-83
2022/03/18 20:54:09;;;;;;;88.90;37.73;;;1.10;66.40;;;;;;9830319;30;20063;-83
2022/03/18 20:59:10;;;;;;;97.03;38.83;;;1.10;65.70;;;;;;9831723;30;20048;-83
2022/03/18 21:04:11;;;;;;;84.73;37.00;;;1.10;66.00;;;;;;9819424;30;20036;-83
2022/03/18 21:09:12;;;;;;;90.33;36.83;;;1.10;65.70;;;;;;9828228;30;20097;-83
2022/03/18 21:14:17;;;;;;;87.17;35.40;;;1.10;66.20;;;;;;9830946;30;20090;-84
2022/03/18 21:19:19;;;;;;;83.70;34.50;;;1.00;65.80;;;;;;9828038;30;20135;-82
2022/03/18 21:24:19;;;;;;;83.17;35.63;;;1.00;66.10;;;;;;9815632;30;20040;-83
2022/03/18 21:34:39;;;;;;;88.97;36.30;;;0.80;66.60;;;;;;9829038;30;20140;-83
2022/03/18 21:39:40;;;;;;;81.53;34.73;;;0.80;66.30;;;;;;9833941;30;20060;-83
2022/03/18 21:44:41;;;;;;;82.90;33.90;;;0.80;66.40;;;;;;9830411;30;20125;-83
2022/03/18 21:49:42;;;;;;;88.43;33.57;;;0.80;66.80;;;;;;9863255;30;20044;-83
2022/03/18 21:54:42;;;;;;;88.57;35.10;;;0.70;66.20;;;;;;9866534;30;20039;-81
2022/03/18 21:59:43;;;;;;;92.03;36.27;;;0.70;66.80;;;;;;9849861;30;20045;-81
2022/03/18 22:04:44;;;;;;;98.37;38.23;;;0.60;66.70;;;;;;9865938;30;20032;-81
2022/03/18 22:09:45;;;;;;;90.57;35.70;;;0.50;67.00;;;;;;9856980;30;20048;-81
2022/03/18 22:14:45;;;;;;;82.03;32.43;;;0.40;67.10;;;;;;9854917;30;20545;-84
2022/03/18 22:19:47;;;;;;;79.70;31.20;;;0.40;66.80;;;;;;9847696;30;20455;-83
2022/03/18 22:24:48;;;;;;;79.83;33.27;;;0.30;68.30;;;;;;9844304;30;20040;-84
2022/03/18 22:29:48;;;;;;;85.17;35.00;;;0.10;68.40;;;;;;9864735;30;20043;-84
2022/03/18 22:34:49;;;;;;;82.10;33.33;;;0.10;68.90;;;;;;9865421;30;20493;-83
2022/03/18 22:39:50;;;;;;;85.40;32.27;;;0.10;68.30;;;;;;9862618;30;20044;-82
2022/03/18 22:44:51;;;;;;;70.63;30.47;;;0.10;68.10;;;;;;9864941;30;20078;-82
2022/03/18 22:49:52;;;;;;;75.67;29.73;;;0.20;66.50;;;;;;9847480;30;20045;-82
2022/03/18 22:54:52;;;;;;;76.90;31.27;;;0.30;66.70;;;;;;9863375;30;20035;-83
2022/03/18 22:59:54;;;;;;;88.73;32.90;;;0.20;67.20;;;;;;9862757;30;20128;-83
2022/03/18 23:04:59;;;;;;;81.03;31.97;;;0.10;67.70;;;;;;9863701;30;20040;-82
2022/03/18 23:10:00;;;;;;;91.30;32.88;;;0.00;67.90;;;;;;9847874;30;20078;-83
2022/03/18 23:15:01;;;;;;;86.90;32.53;;;-0.10;69.40;;;;;;9864372;30;20123;-83
2022/03/18 23:20:02;;;;;;;86.17;33.97;;;-0.30;68.90;;;;;;9862872;30;20489;-83
2022/03/18 23:25:03;;;;;;;84.27;32.37;;;-0.30;68.90;;;;;;9863222;30;21322;-83
2022/03/18 23:30:04;;;;;;;82.93;33.63;;;-0.20;68.30;;;;;;9863498;30;20059;-82
2022/03/18 23:35:06;;;;;;;77.10;31.43;;;-0.10;67.80;;;;;;9863160;30;20035;-82
2022/03/18 23:40:09;;;;;;;86.67;32.07;;;0.00;66.70;;;;;;9862619;30;20052;-82
2022/03/18 23:45:10;;;;;;;80.30;33.60;;;0.10;67.30;;;;;;9845366;30;20516;-83
2022/03/18 23:50:11;;;;;;;82.57;32.97;;;0.10;66.90;;;;;;9825875;30;20036;-82
2022/03/18 23:55:13;;;;;;;85.20;34.77;;;0.00;66.80;;;;;;9825538;30;20044;-82
